Time;durP1;ratioP1;P1;durP2;ratioP2;P2;SDS_P1;SDS_P2;PMS_P1;PMS_P2;Temp;Humidity;BMP_temperature;BMP_pressure;BME280_temperature;BME280_humidity;BME280_pressure;Samples;Min_cycle;Max_cycle;Signal;HPM_P1;HPM_P2
2022/11/20 00:00:32;;;;;;;1.73;1.63;;;;;;;3.12;76.54;101189.00;6098318;28;20231;-75
2022/11/20 00:03:56;;;;;;;2.50;1.77;;;;;;;3.21;76.23;101200.03;6099673;28;20231;-75
2022/11/20 00:07:17;;;;;;;1.93;1.83;;;;;;;3.14;75.67;101195.97;6081163;28;20236;-75
2022/11/20 00:10:40;;;;;;;3.40;2.17;;;;;;;3.11;75.82;101201.44;6104594;28;20235;-74
2022/11/20 00:14:02;;;;;;;2.27;2.07;;;;;;;3.04;76.15;101193.88;6097129;28;20251;-74
2022/11/20 00:17:23;;;;;;;2.73;1.73;;;;;;;2.99;76.44;101187.94;6081243;28;20585;-75
2022/11/20 00:20:44;;;;;;;3.50;2.57;;;;;;;3.08;76.18;101196.31;6098527;29;20236;-75
2022/11/20 00:24:05;;;;;;;2.37;2.20;;;;;;;2.99;76.36;101190.59;6101118;28;20223;-74
2022/11/20 00:27:28;;;;;;;4.93;2.67;;;;;;;3.06;76.64;101187.53;6087072;28;20237;-73
2022/11/20 00:30:49;;;;;;;1.80;1.60;;;;;;;3.02;77.04;101201.97;6112749;28;20232;-74
2022/11/20 00:34:10;;;;;;;2.30;1.70;;;;;;;3.14;76.97;101195.97;6097237;28;20231;-73
2022/11/20 00:37:31;;;;;;;2.03;1.77;;;;;;;3.00;76.95;101201.16;6088878;28;20449;-75
2022/11/20 00:40:56;;;;;;;1.60;1.50;;;;;;;2.95;77.75;101189.91;6096156;28;20236;-74
2022/11/20 00:44:18;;;;;;;2.37;2.03;;;;;;;3.08;77.20;101185.66;6103298;28;20274;-74
2022/11/20 00:47:38;;;;;;;2.70;1.80;;;;;;;3.15;76.96;101183.53;6084390;28;20244;-74
2022/11/20 00:50:59;;;;;;;2.13;2.00;;;;;;;3.13;77.00;101186.25;6098184;28;20232;-75
2022/11/20 00:54:20;;;;;;;1.83;1.67;;;;;;;3.08;77.37;101185.66;6087673;28;20228;-75
2022/11/20 00:57:41;;;;;;;2.47;2.27;;;;;;;3.04;77.44;101186.75;6090372;28;20717;-74
2022/11/20 01:01:05;;;;;;;2.27;1.57;;;;;;;3.04;78.07;101181.44;6106966;28;20235;-74
2022/11/20 01:04:26;;;;;;;1.70;1.60;;;;;;;3.00;78.31;101177.19;6105966;28;20534;-74
2022/11/20 01:07:47;;;;;;;2.20;2.03;;;;;;;3.04;77.88;101181.44;6092001;28;20287;-74
2022/11/20 01:11:10;;;;;;;2.33;1.80;;;;;;;3.15;78.09;101183.53;6099473;28;20260;-74
2022/11/20 01:14:31;;;;;;;2.83;1.73;;;;;;;3.15;77.99;101173.72;6103450;28;20331;-74
2022/11/20 01:17:53;;;;;;;3.13;2.40;;;;;;;3.15;78.13;101178.22;6093722;28;20261;-76
2022/11/20 01:21:17;;;;;;;2.00;1.90;;;;;;;3.19;77.84;101175.28;6103413;28;20244;-75
2022/11/20 01:24:38;;;;;;;3.40;3.10;;;;;;;3.10;78.67;101172.25;6096175;28;20721;-74
2022/11/20 01:27:59;;;;;;;3.33;2.97;;;;;;;3.13;78.50;101172.94;6091229;28;20325;-75
2022/11/20 01:31:23;;;;;;;2.50;1.50;;;;;;;3.03;78.85;101158.41;6104653;28;20236;-75
2022/11/20 01:34:45;;;;;;;4.20;2.50;;;;;;;3.01;79.51;101160.28;6102518;28;20599;-75
2022/11/20 01:38:06;;;;;;;1.97;1.67;;;;;;;2.83;80.04;101147.94;6093689;28;20276;-74
2022/11/20 01:45:38;;;;;;;5.00;1.93;;;;;;;2.89;80.79;101144.09;6052455;28;20232;-74
2022/11/20 01:49:03;;;;;;;2.23;2.13;;;;;;;2.83;81.60;101139.09;6098170;28;20227;-76
2022/11/20 01:52:31;;;;;;;2.47;2.07;;;;;;;2.87;81.93;101144.19;6083583;28;20268;-74
2022/11/20 01:55:55;;;;;;;2.50;2.00;;;;;;;2.81;81.67;101133.88;6093363;28;20248;-74
2022/11/20 01:59:19;;;;;;;2.13;1.93;;;;;;;2.83;82.33;101136.44;6088523;28;20236;-76
2022/11/20 02:02:43;;;;;;;4.87;3.20;;;;;;;2.91;82.23;101135.09;6088159;28;20243;-75
2022/11/20 02:06:12;;;;;;;2.00;1.67;;;;;;;2.89;82.15;101125.47;6106093;28;20240;-74
2022/11/20 02:09:34;;;;;;;2.30;2.00;;;;;;;2.78;82.91;101119.84;6102543;28;20585;-74
2022/11/20 02:16:39;;;;;;;2.33;2.13;;;;;;;2.88;83.01;101119.28;6093676;28;20461;-74
2022/11/20 02:20:00;;;;;;;2.30;2.10;;;;;;;2.96;82.72;101124.22;6084374;28;20237;-74
2022/11/20 02:23:28;;;;;;;1.83;1.73;;;;;;;3.03;82.13;101122.91;6095324;28;20665;-74
2022/11/20 02:26:54;;;;;;;1.77;1.60;;;;;;;3.02;81.79;101110.56;6099608;28;20235;-74
2022/11/20 02:30:15;;;;;;;2.10;1.77;;;;;;;3.01;82.08;101112.34;6100817;28;20244;-75
2022/11/20 02:33:36;;;;;;;3.03;1.90;;;;;;;3.02;81.99;101111.44;6100413;28;20325;-75
2022/11/20 02:36:58;;;;;;;3.47;2.30;;;;;;;3.00;82.21;101107.97;6102242;28;20236;-74
2022/11/20 02:40:19;;;;;;;1.47;1.37;;;;;;;3.12;81.93;101109.13;6083675;28;20235;-75
2022/11/20 02:43:41;;;;;;;1.93;1.80;;;;;;;3.07;81.72;101117.34;6085911;28;20245;-74
2022/11/20 02:47:02;;;;;;;5.23;2.40;;;;;;;2.96;82.17;101111.72;6093273;28;20238;-74
2022/11/20 02:50:23;;;;;;;1.53;1.43;;;;;;;3.02;82.23;101106.09;6090617;28;20239;-74
2022/11/20 02:53:44;;;;;;;3.17;2.77;;;;;;;3.09;81.73;101106.59;6085537;28;20532;-74
2022/11/20 02:57:05;;;;;;;1.57;1.47;;;;;;;3.05;81.56;101095.25;6097320;28;20306;-74
2022/11/20 03:00:28;;;;;;;2.30;1.70;;;;;;;2.90;81.39;101092.59;6094475;28;20236;-74
2022/11/20 03:03:49;;;;;;;1.83;1.60;;;;;;;2.84;82.20;101085.78;6086962;28;20236;-74
2022/11/20 03:07:10;;;;;;;2.43;2.23;;;;;;;2.84;82.20;101088.44;6097273;28;20231;-75
2022/11/20 03:10:31;;;;;;;2.60;2.30;;;;;;;2.75;82.74;101091.59;6084142;28;20236;-75
2022/11/20 03:13:52;;;;;;;3.53;1.60;;;;;;;2.84;82.61;101085.78;6096513;28;20564;-75
2022/11/20 03:17:14;;;;;;;2.97;2.10;;;;;;;2.73;82.70;101088.16;6099308;28;20227;-74
2022/11/20 03:20:35;;;;;;;2.00;1.87;;;;;;;2.75;82.11;101096.94;6092212;28;20236;-75
2022/11/20 03:23:56;;;;;;;1.97;1.87;;;;;;;2.87;82.20;101098.94;6102630;28;20239;-75
2022/11/20 03:27:17;;;;;;;1.87;1.77;;;;;;;2.88;81.74;101090.00;6086635;28;22152;-74
2022/11/20 03:30:37;;;;;;;2.10;2.00;;;;;;;2.87;81.83;101096.28;6091563;28;20228;-75
2022/11/20 03:34:01;;;;;;;1.60;1.50;;;;;;;2.90;81.93;101092.59;6102170;28;22001;-74
2022/11/20 03:37:21;;;;;;;1.63;1.47;;;;;;;2.80;81.98;101092.19;6085331;28;20556;-74
2022/11/20 03:40:43;;;;;;;3.03;2.77;;;;;;;2.80;81.98;101088.69;6107748;28;20239;-74
2022/11/20 03:44:06;;;;;;;1.83;1.57;;;;;;;2.75;81.97;101085.41;6091778;28;20511;-75
2022/11/20 03:47:26;;;;;;;3.83;2.07;;;;;;;2.77;81.98;101080.88;6091467;28;20232;-75
2022/11/20 03:50:48;;;;;;;2.20;2.10;;;;;;;2.90;81.68;101080.13;6093974;28;20251;-75
2022/11/20 03:54:09;;;;;;;2.13;1.90;;;;;;;2.91;81.91;101079.19;6099563;28;20291;-75
2022/11/20 03:57:30;;;;;;;2.20;2.00;;;;;;;2.91;81.48;101073.88;6089341;28;20225;-74
2022/11/20 04:00:52;;;;;;;1.93;1.83;;;;;;;2.84;82.08;101064.47;6093502;28;20657;-75
2022/11/20 04:04:13;;;;;;;3.23;1.67;;;;;;;2.92;81.82;101070.25;6101777;28;20242;-74
2022/11/20 04:07:36;;;;;;;1.80;1.70;;;;;;;2.85;82.20;101054.69;6088991;28;20232;-74
2022/11/20 04:10:57;;;;;;;2.80;1.90;;;;;;;2.75;82.71;101066.78;6103729;28;20239;-75
2022/11/20 04:14:18;;;;;;;2.17;1.97;;;;;;;2.74;82.84;101067.72;6103598;28;20219;-74
2022/11/20 04:17:38;;;;;;;2.23;2.10;;;;;;;2.76;82.66;101058.72;6089208;28;20242;-74
2022/11/20 04:20:59;;;;;;;2.03;1.80;;;;;;;2.78;82.73;101063.94;6103500;28;20236;-74
2022/11/20 04:24:22;;;;;;;6.30;1.80;;;;;;;2.79;82.37;101063.88;6078861;28;20607;-74
2022/11/20 04:27:42;;;;;;;2.23;2.13;;;;;;;2.74;82.97;101062.38;6084702;28;20232;-74
2022/11/20 04:31:05;;;;;;;1.57;1.47;;;;;;;2.79;82.83;101055.03;6093636;28;20236;-74
2022/11/20 04:34:26;;;;;;;2.23;1.43;;;;;;;2.71;83.19;101058.09;6083303;28;20326;-75
2022/11/20 04:37:47;;;;;;;2.30;2.00;;;;;;;2.71;83.10;101052.75;6088915;28;20231;-75
2022/11/20 04:41:17;;;;;;;2.23;1.90;;;;;;;2.74;83.26;101055.28;6106326;28;20323;-74
2022/11/20 04:44:38;;;;;;;3.10;2.90;;;;;;;2.81;82.97;101061.13;6100555;28;20231;-74
2022/11/20 04:47:59;;;;;;;2.80;2.27;;;;;;;2.88;83.07;101058.03;6093427;28;20220;-74
2022/11/20 04:51:20;;;;;;;1.90;1.70;;;;;;;2.84;82.82;101047.63;6097667;28;20240;-74
2022/11/20 04:54:40;;;;;;;2.23;1.67;;;;;;;2.84;83.02;101042.31;6082632;28;20358;-74
2022/11/20 04:58:03;;;;;;;2.77;2.03;;;;;;;2.67;83.15;101048.56;6094699;28;20247;-74
2022/11/20 05:01:25;;;;;;;14.80;2.63;;;;;;;2.78;83.24;101045.31;6098287;28;20240;-74
2022/11/20 05:04:46;;;;;;;1.83;1.67;;;;;;;2.87;83.04;101043.03;6106082;28;20240;-76
2022/11/20 05:08:07;;;;;;;1.60;1.50;;;;;;;2.91;82.78;101041.06;6097881;28;20231;-75
2022/11/20 05:11:28;;;;;;;2.83;2.13;;;;;;;2.81;82.63;101038.03;6107143;28;20323;-75
2022/11/20 05:14:51;;;;;;;1.83;1.73;;;;;;;2.74;83.13;101026.00;6086657;28;20519;-74
2022/11/20 05:18:12;;;;;;;1.63;1.53;;;;;;;2.56;83.96;101021.69;6091355;28;20313;-75
2022/11/20 05:21:33;;;;;;;1.73;1.63;;;;;;;2.39;84.95;101021.72;6098212;28;20228;-74
2022/11/20 05:24:54;;;;;;;1.80;1.57;;;;;;;2.44;84.65;101020.50;6087750;28;20228;-74
2022/11/20 05:28:15;;;;;;;5.60;2.00;;;;;;;2.53;84.67;101016.50;6095632;28;20334;-74
2022/11/20 05:31:37;;;;;;;2.43;2.23;;;;;;;2.64;84.33;101015.94;6106143;28;20247;-74
2022/11/20 05:34:58;;;;;;;1.63;1.53;;;;;;;2.53;84.72;101010.31;6374583;23;20640;-74
2022/11/20 05:38:19;;;;;;;2.00;1.80;;;;;;;2.50;84.49;101015.81;6076835;28;20227;-75
2022/11/20 05:41:39;;;;;;;3.23;2.10;;;;;;;2.46;84.70;101017.78;6089726;28;20241;-74
2022/11/20 05:45:02;;;;;;;2.17;2.03;;;;;;;2.39;85.31;101013.72;6073647;29;20240;-74
2022/11/20 05:48:24;;;;;;;2.33;2.13;;;;;;;2.30;85.29;101003.56;6076407;29;20238;-74
2022/11/20 05:51:45;;;;;;;2.60;2.40;;;;;;;2.16;85.76;100996.31;6074428;29;20320;-74
2022/11/20 05:55:07;;;;;;;1.97;1.87;;;;;;;2.31;85.23;101000.84;6077406;29;20518;-73
2022/11/20 05:58:28;;;;;;;2.43;2.23;;;;;;;2.39;84.87;101001.31;6076206;28;20327;-74
2022/11/20 06:01:49;;;;;;;2.63;2.43;;;;;;;2.47;84.82;100994.69;6071769;29;20233;-75
2022/11/20 06:05:11;;;;;;;5.60;3.33;;;;;;;2.23;85.08;100995.03;6082945;28;20236;-74
2022/11/20 06:08:33;;;;;;;2.30;2.13;;;;;;;2.29;85.20;100988.56;6075483;28;20327;-74
2022/11/20 06:11:54;;;;;;;2.40;1.97;;;;;;;2.13;85.85;100999.13;6070816;28;20233;-74
2022/11/20 06:15:15;;;;;;;5.63;2.07;;;;;;;2.19;85.97;101000.63;6072104;29;20240;-73
2022/11/20 06:18:36;;;;;;;3.73;2.67;;;;;;;2.23;85.97;100991.56;6077506;29;20458;-74
2022/11/20 06:21:58;;;;;;;2.13;1.80;;;;;;;2.37;85.42;100999.66;6078402;28;20327;-74
2022/11/20 06:25:19;;;;;;;3.20;2.80;;;;;;;2.38;84.93;101002.22;6078252;28;20263;-73
2022/11/20 06:28:40;;;;;;;3.07;2.70;;;;;;;2.12;86.17;101001.88;6072638;29;20256;-73
2022/11/20 06:32:01;;;;;;;3.50;3.00;;;;;;;2.24;85.86;100995.91;6074600;29;20263;-74
2022/11/20 06:35:22;;;;;;;5.23;3.30;;;;;;;2.37;85.46;101000.53;6067137;29;20237;-74
2022/11/20 06:38:45;;;;;;;6.83;3.97;;;;;;;2.37;85.30;100994.34;6049818;29;20232;-74
2022/11/20 06:42:05;;;;;;;5.10;3.33;;;;;;;2.50;84.92;100992.75;6055881;29;20240;-75
2022/11/20 06:45:27;;;;;;;4.97;4.57;;;;;;;2.66;84.33;100993.63;6046765;29;20237;-74
2022/11/20 06:48:48;;;;;;;6.03;3.13;;;;;;;2.75;84.33;100992.28;6024340;29;20241;-73
2022/11/20 06:52:10;;;;;;;5.93;4.07;;;;;;;2.72;83.70;100992.41;6049969;29;20249;-74
2022/11/20 06:55:32;;;;;;;4.30;3.13;;;;;;;2.68;83.34;100988.22;6053492;29;20245;-74
2022/11/20 06:58:53;;;;;;;3.20;3.00;;;;;;;2.62;83.46;100985.88;6050638;29;20229;-74
2022/11/20 07:02:14;;;;;;;7.30;3.80;;;;;;;2.54;83.45;100988.09;6045471;29;20237;-74
2022/11/20 07:05:36;;;;;;;4.17;3.67;;;;;;;2.49;83.67;100991.00;6044035;29;20256;-75
2022/11/20 07:08:56;;;;;;;2.77;2.53;;;;;;;2.54;83.68;100990.78;6053413;29;20351;-74
2022/11/20 07:12:19;;;;;;;3.30;3.00;;;;;;;2.64;83.23;100999.97;6045961;29;20252;-74
2022/11/20 07:15:40;;;;;;;4.63;3.93;;;;;;;2.67;83.08;100995.31;6055735;29;20237;-74
2022/11/20 07:19:00;;;;;;;3.80;2.83;;;;;;;2.73;82.93;100991.50;6052090;29;20240;-74
2022/11/20 07:22:22;;;;;;;2.47;2.27;;;;;;;2.72;82.91;100995.09;6037810;29;20237;-75
2022/11/20 07:25:43;;;;;;;3.10;2.53;;;;;;;2.52;83.24;100990.00;6064452;29;20331;-75
2022/11/20 07:29:05;;;;;;;3.47;1.97;;;;;;;2.62;83.13;100988.53;6053447;29;20228;-74
2022/11/20 07:32:26;;;;;;;1.70;1.60;;;;;;;2.82;82.78;100991.84;6040353;29;21431;-74
2022/11/20 07:35:46;;;;;;;3.40;1.50;;;;;;;2.94;82.39;100991.16;6059584;29;20245;-74
2022/11/20 07:39:07;;;;;;;1.93;1.80;;;;;;;2.89;82.14;100982.56;6054781;29;20254;-75
2022/11/20 07:42:28;;;;;;;1.90;1.80;;;;;;;2.91;82.19;100983.34;6040431;29;20234;-74
2022/11/20 07:45:52;;;;;;;2.00;1.77;;;;;;;2.88;82.38;100990.66;6047288;29;20236;-74
2022/11/20 07:49:12;;;;;;;2.53;2.43;;;;;;;2.72;82.43;100993.28;6048988;29;20240;-75
2022/11/20 07:52:33;;;;;;;1.87;1.77;;;;;;;2.78;82.15;100997.41;6048174;29;20588;-75
2022/11/20 07:55:54;;;;;;;2.93;1.83;;;;;;;2.74;81.57;100996.72;6057328;29;20977;-76
2022/11/20 07:59:16;;;;;;;2.63;2.10;;;;;;;2.71;81.65;100998.69;6052616;29;21079;-74
2022/11/20 08:02:40;;;;;;;3.40;2.30;;;;;;;2.70;81.91;100984.53;6039763;29;20236;-74
2022/11/20 08:06:01;;;;;;;2.73;2.63;;;;;;;2.75;81.84;100986.94;6067344;29;20439;-74
2022/11/20 08:09:22;;;;;;;2.77;2.53;;;;;;;2.89;81.67;100985.25;6058506;29;20516;-76
2022/11/20 08:16:25;;;;;;;3.00;2.70;;;;;;;2.99;81.09;100989.09;6058975;29;20237;-74
2022/11/20 08:19:47;;;;;;;2.43;2.23;;;;;;;3.01;80.73;100981.88;6053936;29;20233;-74
2022/11/20 08:23:08;;;;;;;2.87;2.40;;;;;;;3.10;80.20;100983.19;6049184;29;20233;-74
2022/11/20 08:26:29;;;;;;;2.83;2.37;;;;;;;3.07;80.18;100984.19;6060225;29;20256;-74
2022/11/20 08:29:50;;;;;;;2.03;1.87;;;;;;;3.10;79.79;100988.50;6065313;29;20241;-74
2022/11/20 08:33:11;;;;;;;1.83;1.73;;;;;;;2.82;80.87;100982.97;6058439;29;20233;-74
2022/11/20 08:36:35;;;;;;;2.07;1.80;;;;;;;2.89;80.28;100993.22;6073801;29;20249;-75
2022/11/20 08:39:56;;;;;;;6.73;1.90;;;;;;;2.91;80.28;100993.13;6071585;29;20776;-74
2022/11/20 08:43:17;;;;;;;3.97;2.60;;;;;;;2.88;80.49;100991.50;6055968;29;20229;-75
2022/11/20 08:46:40;;;;;;;2.23;2.03;;;;;;;2.94;80.73;100991.16;6060258;29;21137;-74
2022/11/20 08:50:01;;;;;;;1.80;1.53;;;;;;;3.05;80.32;100991.41;6054298;29;20334;-74
2022/11/20 08:53:23;;;;;;;1.93;1.60;;;;;;;3.13;79.98;100997.16;6046803;29;20224;-74
2022/11/20 08:56:44;;;;;;;1.77;1.67;;;;;;;3.06;80.35;101005.59;6062696;29;20241;-76
2022/11/20 09:00:08;;;;;;;1.77;1.63;;;;;;;3.04;80.70;101004.81;6058922;29;20242;-75
2022/11/20 09:03:29;;;;;;;1.60;1.50;;;;;;;3.28;79.50;100998.09;6049727;29;20260;-74
2022/11/20 09:06:51;;;;;;;2.00;1.80;;;;;;;3.97;77.77;100999.34;6057957;29;20229;-74
2022/11/20 09:10:13;;;;;;;1.90;1.37;;;;;;;4.41;76.28;101001.97;6059096;29;20658;-74
2022/11/20 09:13:36;;;;;;;3.70;2.07;;;;;;;4.30;75.84;100999.09;6053553;29;20335;-74
2022/11/20 09:16:57;;;;;;;1.87;1.63;;;;;;;3.89;77.12;100998.06;6051097;29;20793;-74
2022/11/20 09:20:18;;;;;;;2.77;2.57;;;;;;;3.48;79.46;100994.31;6035975;29;21029;-73
2022/11/20 09:23:39;;;;;;;1.70;1.37;;;;;;;3.32;80.80;100990.81;6054475;29;20248;-75
2022/11/20 09:27:04;;;;;;;2.10;1.90;;;;;;;3.18;81.87;100999.56;6057607;29;20233;-73
2022/11/20 09:30:26;;;;;;;1.73;1.63;;;;;;;3.14;81.92;100998.91;6053165;29;21110;-75
2022/11/20 09:33:47;;;;;;;2.53;1.87;;;;;;;3.12;82.66;100997.25;6047076;29;20842;-74
2022/11/20 09:37:08;;;;;;;2.03;1.57;;;;;;;3.25;82.09;100995.63;6047827;29;20273;-75
2022/11/20 09:40:30;;;;;;;1.63;1.53;;;;;;;3.23;82.61;100994.88;6061668;29;20260;-76
2022/11/20 09:43:59;;;;;;;2.63;2.27;;;;;;;3.20;82.35;100995.88;6060153;29;20232;-74
2022/11/20 09:47:33;;;;;;;1.40;1.30;;;;;;;3.33;82.40;101000.50;6051960;29;20237;-74
2022/11/20 09:51:01;;;;;;;3.43;1.60;;;;;;;3.35;81.90;101002.16;6072430;29;20237;-75
2022/11/20 09:54:28;;;;;;;2.00;1.80;;;;;;;3.39;82.05;101006.34;6069733;29;20231;-76
2022/11/20 09:57:53;;;;;;;2.00;1.90;;;;;;;3.33;82.04;101004.03;6059437;29;20236;-75
2022/11/20 10:01:17;;;;;;;1.90;1.40;;;;;;;3.54;81.41;100999.28;6063945;29;20229;-73
2022/11/20 10:04:45;;;;;;;1.77;1.43;;;;;;;3.45;81.14;101002.47;6064392;29;20320;-73
2022/11/20 10:08:17;;;;;;;1.70;1.60;;;;;;;3.73;80.54;101000.81;6053539;29;20231;-73
2022/11/20 10:11:49;;;;;;;2.10;2.00;;;;;;;3.66;79.63;100998.56;6063022;29;20607;-72
2022/11/20 10:15:22;;;;;;;1.40;1.30;;;;;;;3.63;80.00;100993.44;6057096;29;20237;-73
2022/11/20 10:19:02;;;;;;;2.17;1.87;;;;;;;3.74;79.08;100994.50;6053736;29;20236;-71
2022/11/20 10:22:40;;;;;;;1.77;1.53;;;;;;;4.39;77.48;100985.22;6058189;29;20638;-72
2022/11/20 10:26:03;;;;;;;1.93;1.57;;;;;;;4.18;77.61;100990.97;6057278;29;20241;-72
2022/11/20 10:29:33;;;;;;;1.47;1.37;;;;;;;3.91;78.47;100991.72;6057383;29;20233;-72
2022/11/20 10:33:02;;;;;;;1.90;1.50;;;;;;;4.45;76.71;100984.81;6049493;29;20228;-72
2022/11/20 10:36:31;;;;;;;1.27;1.27;;;;;;;4.88;74.81;100984.81;6060457;29;20229;-74
2022/11/20 10:39:59;;;;;;;2.63;1.23;;;;;;;5.84;71.31;100965.00;6056723;29;20805;-77
2022/11/20 10:43:25;;;;;;;2.00;1.90;;;;;;;6.27;68.18;100968.28;6060641;29;20232;-75
2022/11/20 10:46:46;;;;;;;1.83;1.73;;;;;;;5.27;71.74;100971.56;6061105;29;20289;-75
2022/11/20 10:50:12;;;;;;;1.87;1.77;;;;;;;4.71;74.77;100968.03;6067475;29;20240;-80
2022/11/20 10:53:54;;;;;;;1.90;1.80;;;;;;;4.48;74.57;100971.31;6061689;29;20245;-77
2022/11/20 10:57:30;;;;;;;2.07;1.90;;;;;;;4.37;75.88;100972.91;6057703;29;20237;-76
2022/11/20 11:00:51;;;;;;;1.87;1.77;;;;;;;4.78;74.52;100969.38;6054963;29;20233;-74
2022/11/20 11:04:34;;;;;;;1.67;1.57;;;;;;;7.17;66.56;100961.72;6052002;29;20237;-74
2022/11/20 11:07:57;;;;;;;2.17;1.97;;;;;;;6.26;69.00;100956.72;6045893;29;20232;-73
2022/11/20 11:11:25;;;;;;;2.30;1.53;;;;;;;5.45;71.52;100954.28;6060874;29;20256;-74
2022/11/20 11:14:48;;;;;;;2.23;2.03;;;;;;;5.13;72.24;100951.06;6045460;29;20316;-74
2022/11/20 11:18:11;;;;;;;3.37;1.63;;;;;;;4.72;73.84;100950.19;6051554;29;20236;-80
2022/11/20 11:21:32;;;;;;;3.50;1.83;;;;;;;4.67;74.64;100938.97;6061088;29;20232;-83
2022/11/20 11:24:54;;;;;;;1.83;1.73;;;;;;;4.64;75.37;100936.47;6060044;29;20236;-76
2022/11/20 11:28:25;;;;;;;1.57;1.47;;;;;;;5.51;72.78;100936.03;6045670;29;20780;-78
2022/11/20 11:31:46;;;;;;;1.80;1.70;;;;;;;4.83;73.25;100937.91;6054143;29;20328;-76
2022/11/20 11:35:20;;;;;;;1.73;1.63;;;;;;;4.45;74.81;100947.47;6055920;29;20253;-77
2022/11/20 11:38:43;;;;;;;2.40;1.67;;;;;;;4.26;75.59;100948.69;6055912;29;20233;-77
2022/11/20 11:42:05;;;;;;;1.57;1.47;;;;;;;4.37;74.92;100947.09;6054843;29;20590;-79
2022/11/20 11:45:27;;;;;;;1.60;1.50;;;;;;;4.37;75.06;100947.09;6045722;29;20297;-78
2022/11/20 11:48:56;;;;;;;1.73;1.63;;;;;;;4.33;75.44;100944.69;6054014;29;20319;-78
2022/11/20 11:52:21;;;;;;;1.70;1.60;;;;;;;4.54;81.05;100949.56;6052968;29;20328;-77
2022/11/20 11:55:47;;;;;;;1.97;1.87;;;;;;;4.96;75.79;100942.44;6049411;29;20238;-77
2022/11/20 11:59:16;;;;;;;2.57;1.97;;;;;;;4.52;74.77;100934.59;6049641;29;20267;-76
2022/11/20 12:02:54;;;;;;;1.40;1.30;;;;;;;4.24;74.59;100932.78;6059162;29;20321;-75
2022/11/20 12:06:17;;;;;;;1.20;1.20;;;;;;;4.19;75.72;100942.03;6067406;29;20654;-76
2022/11/20 12:09:47;;;;;;;1.10;1.10;;;;;;;4.10;73.92;100946.13;6056472;29;21055;-76
2022/11/20 12:13:18;;;;;;;0.80;0.80;;;;;;;4.14;73.97;100936.09;6050105;29;20232;-76
2022/11/20 12:16:40;;;;;;;1.73;1.63;;;;;;;4.12;73.68;100941.53;6049641;29;20233;-77
2022/11/20 12:20:03;;;;;;;1.50;1.40;;;;;;;4.17;74.08;100938.59;6061856;29;20367;-77
2022/11/20 12:23:36;;;;;;;3.07;2.70;;;;;;;4.69;77.16;100934.41;6049178;29;20326;-73
2022/11/20 12:27:07;;;;;;;6.07;5.33;;;;;;;4.88;73.14;100926.91;6056691;29;20232;-72
2022/11/20 12:30:28;;;;;;;3.90;3.43;;;;;;;5.25;78.40;100923.56;6041792;29;20330;-69
2022/11/20 12:34:12;;;;;;;102.07;33.93;;;;;;;5.54;75.32;100918.94;6053956;29;20595;-69
2022/11/20 12:37:46;;;;;;;8.20;6.37;;;;;;;5.67;75.24;100909.97;6056729;29;20240;-72
2022/11/20 12:45:09;;;;;;;1.60;1.50;;;;;;;5.66;70.46;100897.56;6060798;29;20252;-69
2022/11/20 12:45:18;;;;;;;1.53;1.43;;;;;;;5.35;69.34;100902.41;6047841;29;20339;-80
2022/11/20 12:48:50;;;;;;;1.60;1.50;;;;;;;5.31;69.68;100900.91;6056199;29;20237;-81
2022/11/20 12:52:22;;;;;;;1.30;1.20;;;;;;;5.30;71.10;100893.88;6054210;29;20241;-80
2022/11/20 12:55:50;;;;;;;1.50;1.40;;;;;;;5.39;70.68;100903.91;6057971;29;20616;-82
2022/11/20 12:59:32;;;;;;;1.53;1.20;;;;;;;5.13;70.73;100894.94;6063301;29;20561;-82
2022/11/20 13:03:21;;;;;;;1.80;1.70;;;;;;;5.06;69.58;100900.81;6047788;29;20240;-80
2022/11/20 13:06:43;;;;;;;1.67;1.57;;;;;;;4.83;69.92;100900.50;6062641;29;20237;-82
2022/11/20 13:10:06;;;;;;;1.33;1.03;;;;;;;4.84;70.69;100904.88;6064718;29;20602;-81
2022/11/20 13:13:36;;;;;;;3.13;1.63;;;;;;;4.75;70.56;100894.81;6060285;29;20236;-79
2022/11/20 13:17:01;;;;;;;2.33;1.50;;;;;;;4.76;70.62;100891.16;6056255;29;20245;-80
2022/11/20 13:20:22;;;;;;;1.50;1.40;;;;;;;4.56;71.18;100894.28;6062158;29;20233;-81
2022/11/20 13:23:43;;;;;;;2.37;2.00;;;;;;;4.53;71.98;100894.44;6063091;29;20225;-80
2022/11/20 13:27:18;;;;;;;1.67;1.50;;;;;;;4.45;71.46;100890.56;6062150;29;20603;-81
2022/11/20 13:30:52;;;;;;;1.40;1.23;;;;;;;4.61;71.11;100888.66;6063088;29;20233;-82
2022/11/20 13:34:23;;;;;;;1.57;1.47;;;;;;;4.50;72.23;100889.31;6071763;29;20255;-80
2022/11/20 13:37:44;;;;;;;1.13;1.13;;;;;;;4.73;72.66;100886.03;6061042;29;20259;-81
2022/11/20 13:44:47;;;;;;;1.80;1.70;;;;;;;4.57;70.83;100881.75;6062550;29;20233;-81
2022/11/20 13:48:21;;;;;;;1.30;1.20;;;;;;;4.57;70.97;100876.41;6048986;29;20237;-81
2022/11/20 13:51:45;;;;;;;1.27;1.17;;;;;;;4.53;71.00;100873.09;6066286;29;20225;-80
2022/11/20 13:55:17;;;;;;;3.37;1.80;;;;;;;4.41;71.60;100873.88;6075042;29;20221;-79
2022/11/20 13:58:49;;;;;;;1.83;1.73;;;;;;;4.07;72.52;100875.13;6062508;29;20613;-81
2022/11/20 14:02:13;;;;;;;2.07;1.87;;;;;;;3.91;72.80;100868.19;6071155;29;20238;-81
2022/11/20 14:05:39;;;;;;;1.40;1.30;;;;;;;4.07;73.35;100867.13;6077046;29;20500;-80
2022/11/20 14:09:00;;;;;;;1.20;1.20;;;;;;;4.20;72.66;100861.03;6056037;29;20609;-80
2022/11/20 14:12:23;;;;;;;2.00;1.60;;;;;;;4.24;73.19;100860.75;6056241;29;20233;-82
2022/11/20 14:15:44;;;;;;;1.17;1.10;;;;;;;4.12;72.51;100860.66;6054559;29;20327;-82
2022/11/20 14:19:26;;;;;;;1.00;0.97;;;;;;;4.19;72.93;100857.53;6057684;29;20237;-81
2022/11/20 14:22:51;;;;;;;1.87;1.57;;;;;;;4.05;72.04;100849.50;6054681;29;20244;-82
2022/11/20 14:26:15;;;;;;;2.10;1.90;;;;;;;4.11;72.57;100845.63;6063545;29;20233;-79
2022/11/20 14:29:38;;;;;;;7.33;4.93;;;;;;;4.07;73.04;100845.81;6059355;29;20232;-80
2022/11/20 14:33:04;;;;;;;4.90;4.50;;;;;;;4.11;73.36;100842.97;6054641;29;20366;-79
2022/11/20 14:36:26;;;;;;;2.77;2.33;;;;;;;4.21;73.49;100844.94;6065048;29;20237;-79
2022/11/20 14:39:52;;;;;;;2.10;1.57;;;;;;;4.14;73.55;100848.09;6070267;29;20233;-80
2022/11/20 14:43:23;;;;;;;2.00;1.80;;;;;;;4.11;73.67;100840.28;6057428;29;20231;-79
2022/11/20 14:46:44;;;;;;;2.03;1.90;;;;;;;4.12;73.82;100850.00;6067474;29;20561;-80
2022/11/20 14:50:15;;;;;;;3.13;1.60;;;;;;;5.23;88.08;100847.97;6062396;29;20233;-80
2022/11/20 14:53:36;;;;;;;2.43;1.67;;;;;;;4.94;71.86;100840.19;6067728;29;20228;-79
2022/11/20 14:57:01;;;;;;;1.50;1.40;;;;;;;4.59;72.12;100843.34;6055126;29;20241;-75
2022/11/20 15:00:23;;;;;;;3.00;2.30;;;;;;;4.31;72.66;100839.88;6040924;29;20237;-74
2022/11/20 15:03:44;;;;;;;1.57;1.47;;;;;;;4.23;72.83;100837.72;6048632;29;20229;-75
2022/11/20 15:07:05;;;;;;;2.03;1.37;;;;;;;5.10;87.36;100824.84;6046362;29;20241;-74
2022/11/20 15:10:28;;;;;;;1.67;1.57;;;;;;;5.07;72.55;100817.88;6048455;29;20793;-73
2022/11/20 15:13:50;;;;;;;2.43;2.33;;;;;;;4.53;72.75;100817.03;6045532;29;20497;-73
2022/11/20 15:17:12;;;;;;;1.97;1.80;;;;;;;4.18;73.98;100825.59;6037611;29;20652;-73
2022/11/20 15:20:34;;;;;;;1.60;1.50;;;;;;;4.03;74.22;100822.09;6041273;29;22012;-74
2022/11/20 15:23:55;;;;;;;2.53;1.47;;;;;;;3.96;74.31;100820.78;6045614;29;20224;-74
2022/11/20 15:27:16;;;;;;;1.60;1.50;;;;;;;3.89;74.60;100819.44;6036168;29;20237;-73
2022/11/20 15:30:38;;;;;;;1.67;1.53;;;;;;;3.77;75.44;100823.72;6040838;29;20229;-73
2022/11/20 15:33:59;;;;;;;2.43;1.43;;;;;;;3.77;75.18;100813.06;6036887;29;20233;-74
2022/11/20 15:37:19;;;;;;;1.70;1.60;;;;;;;3.85;75.28;100809.91;6033399;29;21431;-74
2022/11/20 15:40:40;;;;;;;9.07;6.57;;;;;;;3.88;74.91;100807.06;6059753;29;20237;-75
2022/11/20 15:44:01;;;;;;;11.00;8.23;;;;;;;3.88;75.24;100799.91;6050038;29;20574;-74
2022/11/20 15:47:27;;;;;;;5.93;3.73;;;;;;;3.89;74.94;100800.75;6032343;29;20260;-73
2022/11/20 15:50:53;;;;;;;1.67;1.57;;;;;;;3.86;74.15;100804.47;6058140;29;20246;-76
2022/11/20 15:54:17;;;;;;;3.10;1.87;;;;;;;3.84;74.05;100800.19;6042444;29;20328;-78
2022/11/20 15:57:38;;;;;;;3.57;1.50;;;;;;;3.66;73.94;100806.66;6044345;29;21470;-76
2022/11/20 16:00:59;;;;;;;1.90;1.80;;;;;;;3.48;75.50;100805.13;6042327;29;20268;-72
2022/11/20 16:04:21;;;;;;;2.17;1.87;;;;;;;3.47;76.13;100804.25;6054246;29;20233;-73
2022/11/20 16:07:42;;;;;;;3.47;2.10;;;;;;;3.54;76.31;100804.75;6041175;29;20251;-74
2022/11/20 16:11:03;;;;;;;3.80;3.03;;;;;;;3.61;75.71;100800.78;6064719;29;20462;-73
2022/11/20 16:18:02;;;;;;;3.30;3.00;;;;;;;3.65;75.54;100783.63;6047821;29;20248;-77